Time;durP1;ratioP1;P1;durP2;ratioP2;P2;SDS_P1;SDS_P2;PMS_P1;PMS_P2;Temp;Humidity;BMP_temperature;BMP_pressure;BME280_temperature;BME280_humidity;BME280_pressure;Samples;Min_cycle;Max_cycle;Signal;HPM_P1;HPM_P2
2024/03/18 00:01:53;;;;;;;6.25;2.70;;;17.60;59.80;;;;;;6263418;28;20055;-76
2024/03/18 00:04:56;;;;;;;4.93;2.28;;;17.50;59.80;;;;;;6281645;28;20027;-77
2024/03/18 00:07:57;;;;;;;6.30;1.95;;;17.40;59.80;;;;;;6283628;28;20051;-76
2024/03/18 00:10:58;;;;;;;5.13;1.85;;;17.50;59.80;;;;;;6284096;28;20032;-78
2024/03/18 00:14:00;;;;;;;6.00;2.55;;;17.50;59.70;;;;;;6285283;28;20411;-76
2024/03/18 00:17:01;;;;;;;3.60;1.80;;;17.40;59.60;;;;;;6283539;28;20021;-78
2024/03/18 00:20:10;;;;;;;3.35;1.58;;;17.40;59.70;;;;;;6266765;28;20032;-77
2024/03/18 00:23:12;;;;;;;4.45;2.22;;;17.40;59.80;;;;;;6283530;28;20287;-77
2024/03/18 00:26:20;;;;;;;6.97;1.67;;;17.30;59.80;;;;;;6283863;28;20110;-77
2024/03/18 00:29:20;;;;;;;3.47;1.67;;;17.30;59.90;;;;;;6285306;28;20038;-77
2024/03/18 00:32:21;;;;;;;4.28;1.95;;;17.30;59.90;;;;;;6282773;28;21405;-77
2024/03/18 00:35:22;;;;;;;4.72;2.22;;;17.20;59.90;;;;;;6284944;28;20021;-77
2024/03/18 00:38:24;;;;;;;10.88;2.80;;;17.20;59.90;;;;;;6266539;28;20088;-76
2024/03/18 00:44:45;;;;;;;5.15;1.70;;;17.20;60.10;;;;;;6276146;28;20020;-76
2024/03/18 00:47:46;;;;;;;2.33;1.70;;;17.20;60.20;;;;;;6282053;28;20048;-77
2024/03/18 00:50:49;;;;;;;5.15;2.05;;;17.20;60.20;;;;;;6280257;28;20044;-77
2024/03/18 00:53:51;;;;;;;4.55;1.55;;;17.20;60.20;;;;;;6283937;28;20064;-77
2024/03/18 00:56:52;;;;;;;5.18;1.98;;;17.20;60.20;;;;;;6282934;28;20559;-77
2024/03/18 00:59:54;;;;;;;7.63;2.40;;;17.20;60.00;;;;;;6282220;28;20074;-76
2024/03/18 01:02:55;;;;;;;9.00;1.48;;;17.30;60.00;;;;;;6263836;28;20373;-75
2024/03/18 01:05:56;;;;;;;2.72;1.40;;;17.30;59.80;;;;;;6280669;28;20017;-77
2024/03/18 01:08:57;;;;;;;4.25;1.40;;;17.30;59.60;;;;;;6271793;28;20021;-77
2024/03/18 01:11:58;;;;;;;3.80;1.73;;;17.30;59.50;;;;;;6282896;28;20082;-75
2024/03/18 01:14:59;;;;;;;8.90;1.85;;;17.40;59.70;;;;;;6282774;28;20083;-77
2024/03/18 01:18:00;;;;;;;2.53;1.52;;;17.30;59.40;;;;;;6265884;28;20460;-77
2024/03/18 01:21:01;;;;;;;3.70;1.60;;;17.30;59.50;;;;;;6266283;28;20028;-76
2024/03/18 01:24:02;;;;;;;5.53;1.92;;;17.30;59.50;;;;;;6282982;28;20425;-76
2024/03/18 01:27:04;;;;;;;3.72;1.90;;;17.30;59.50;;;;;;6249186;28;20469;-76
2024/03/18 01:30:15;;;;;;;3.55;1.60;;;17.30;59.40;;;;;;6282828;28;20099;-77
2024/03/18 01:33:16;;;;;;;4.45;1.58;;;17.30;59.30;;;;;;6284546;28;20080;-77
2024/03/18 01:36:22;;;;;;;3.38;1.48;;;17.30;59.20;;;;;;6273623;28;20017;-76
2024/03/18 01:39:24;;;;;;;4.05;1.60;;;17.30;59.10;;;;;;6272243;28;20126;-77
2024/03/18 01:42:25;;;;;;;8.32;1.60;;;17.40;59.10;;;;;;6265433;28;20112;-76
2024/03/18 01:45:27;;;;;;;2.88;1.60;;;17.20;58.90;;;;;;6281578;28;20063;-77
2024/03/18 01:48:30;;;;;;;3.40;1.85;;;17.30;58.90;;;;;;6283430;28;20036;-77
2024/03/18 01:51:31;;;;;;;5.25;1.88;;;17.30;58.90;;;;;;6281586;28;20032;-77
2024/03/18 01:54:31;;;;;;;4.90;1.55;;;17.30;58.90;;;;;;6281812;28;20484;-76
2024/03/18 01:57:32;;;;;;;6.97;1.52;;;17.30;59.00;;;;;;6281856;28;20024;-77
2024/03/18 02:00:37;;;;;;;3.15;1.67;;;17.30;59.00;;;;;;6281389;28;20471;-76
2024/03/18 02:03:39;;;;;;;4.75;1.92;;;17.30;59.00;;;;;;6264572;28;20510;-76
2024/03/18 02:06:42;;;;;;;2.10;1.50;;;17.30;59.00;;;;;;6280659;28;20020;-78
2024/03/18 02:09:43;;;;;;;3.92;1.73;;;17.30;59.00;;;;;;6282670;28;20024;-77
2024/03/18 02:12:44;;;;;;;2.08;1.50;;;17.30;59.00;;;;;;6280911;28;20039;-77
2024/03/18 02:15:45;;;;;;;5.43;1.75;;;17.30;59.00;;;;;;6283026;28;20441;-76
2024/03/18 02:18:46;;;;;;;20.63;1.98;;;17.30;59.00;;;;;;6280607;28;20042;-77
2024/03/18 02:21:47;;;;;;;8.60;1.77;;;17.30;59.00;;;;;;6264341;28;20036;-76
2024/03/18 02:24:48;;;;;;;3.83;1.35;;;17.30;59.00;;;;;;6264506;28;20029;-77
2024/03/18 02:27:49;;;;;;;6.13;1.67;;;17.30;59.00;;;;;;6280392;28;20044;-77
2024/03/18 02:30:50;;;;;;;4.13;1.65;;;17.20;58.90;;;;;;6280498;28;20039;-77
2024/03/18 02:34:30;;;;;;;2.65;1.05;;;17.30;58.90;;;;;;6261928;28;20040;-77
2024/03/18 02:37:47;;;;;;;;;;;17.30;58.90;;;;;;6273339;28;20083;-76
2024/03/18 02:40:49;;;;;;;4.15;1.58;;;17.40;58.70;;;;;;6260799;28;20357;-77
2024/03/18 02:43:52;;;;;;;3.22;1.58;;;17.40;58.50;;;;;;6280143;28;20545;-78
2024/03/18 02:46:53;;;;;;;2.47;1.20;;;17.40;58.50;;;;;;6264571;28;20124;-77
2024/03/18 02:49:54;;;;;;;4.18;1.55;;;17.40;58.50;;;;;;6275250;28;20032;-77
2024/03/18 02:52:54;;;;;;;2.75;1.50;;;17.40;58.50;;;;;;6264397;28;20441;-77
2024/03/18 02:55:55;;;;;;;2.47;1.40;;;17.40;58.50;;;;;;6263500;28;20452;-78
2024/03/18 02:58:57;;;;;;;2.80;1.42;;;17.40;58.60;;;;;;6263629;28;20834;-77
2024/03/18 03:01:59;;;;;;;8.73;1.50;;;17.30;58.80;;;;;;6282509;28;20044;-76
2024/03/18 03:05:01;;;;;;;4.85;1.77;;;17.30;59.00;;;;;;6263938;28;20024;-77
2024/03/18 03:08:02;;;;;;;4.95;2.05;;;17.30;59.10;;;;;;6262242;28;20040;-77
2024/03/18 03:11:06;;;;;;;2.35;1.55;;;17.30;59.10;;;;;;6279766;28;20039;-78
2024/03/18 03:14:08;;;;;;;4.25;1.58;;;17.30;59.10;;;;;;6247876;28;20497;-77
2024/03/18 03:17:10;;;;;;;3.40;1.67;;;17.30;59.10;;;;;;6263747;28;20103;-77
2024/03/18 03:20:12;;;;;;;8.02;2.05;;;17.30;59.00;;;;;;6246699;28;20032;-77
2024/03/18 03:23:13;;;;;;;5.32;1.80;;;17.30;59.00;;;;;;6263530;28;20066;-76
2024/03/18 03:26:14;;;;;;;3.92;2.00;;;17.30;59.00;;;;;;6280106;28;20025;-77
2024/03/18 03:29:15;;;;;;;2.67;1.55;;;17.30;59.10;;;;;;6263188;28;20077;-76
2024/03/18 03:32:17;;;;;;;5.05;1.83;;;17.20;59.10;;;;;;6259366;28;20124;-76
2024/03/18 03:35:18;;;;;;;5.95;1.77;;;17.20;59.10;;;;;;6276622;28;20021;-75
2024/03/18 03:38:19;;;;;;;3.67;2.17;;;17.20;59.30;;;;;;6279669;28;20695;-77
2024/03/18 03:41:20;;;;;;;6.13;1.70;;;17.20;59.40;;;;;;6281867;28;20036;-76
2024/03/18 03:44:22;;;;;;;5.47;1.80;;;17.10;59.50;;;;;;6262988;28;20048;-77
2024/03/18 03:47:23;;;;;;;3.60;1.90;;;17.10;59.70;;;;;;6263134;28;20451;-75
2024/03/18 03:50:26;;;;;;;3.95;1.92;;;17.00;59.70;;;;;;6283349;28;20028;-76
2024/03/18 03:53:28;;;;;;;3.03;1.73;;;17.00;59.80;;;;;;6267983;28;20525;-77
2024/03/18 03:56:30;;;;;;;4.97;1.83;;;17.00;59.90;;;;;;6284738;28;20024;-76
2024/03/18 03:59:31;;;;;;;5.95;2.10;;;17.00;59.90;;;;;;6251129;28;20031;-76
2024/03/18 04:02:32;;;;;;;2.42;1.88;;;17.00;59.90;;;;;;6284096;28;20028;-76
2024/03/18 04:05:36;;;;;;;5.72;1.90;;;17.00;59.80;;;;;;6267875;28;20045;-77
2024/03/18 04:08:38;;;;;;;7.47;1.83;;;17.00;59.90;;;;;;6283672;28;20064;-77
2024/03/18 04:11:39;;;;;;;5.85;2.28;;;17.00;59.80;;;;;;6283830;28;20036;-77
2024/03/18 04:14:41;;;;;;;3.78;1.85;;;17.00;59.80;;;;;;6285151;28;20453;-77
2024/03/18 04:17:43;;;;;;;6.97;2.10;;;17.00;59.80;;;;;;6283826;28;20103;-76
2024/03/18 04:20:45;;;;;;;5.47;2.00;;;17.00;59.80;;;;;;6285122;28;20057;-77
2024/03/18 04:23:48;;;;;;;4.30;1.77;;;17.00;59.80;;;;;;6285006;28;20400;-77
2024/03/18 04:26:49;;;;;;;9.45;2.83;;;17.00;59.80;;;;;;6275550;28;20025;-77
2024/03/18 04:29:52;;;;;;;7.68;2.28;;;16.90;59.80;;;;;;6281915;28;20025;-77
2024/03/18 04:32:54;;;;;;;3.45;1.90;;;17.00;59.90;;;;;;6284833;28;20086;-76
2024/03/18 04:35:55;;;;;;;4.47;2.00;;;17.00;59.80;;;;;;6284937;28;20016;-76
2024/03/18 04:38:57;;;;;;;5.55;1.77;;;17.00;59.80;;;;;;6284924;28;20036;-77
2024/03/18 04:42:35;;;;;;;5.55;2.00;;;17.00;59.90;;;;;;6285150;28;20397;-76
2024/03/18 04:45:36;;;;;;;9.98;2.45;;;17.00;59.90;;;;;;6274563;28;20519;-77
2024/03/18 04:48:37;;;;;;;8.90;1.85;;;16.90;60.00;;;;;;6267092;28;20031;-77
2024/03/18 04:51:39;;;;;;;7.57;2.17;;;17.00;60.20;;;;;;6283003;28;20120;-77
2024/03/18 04:54:44;;;;;;;6.05;2.33;;;17.00;60.20;;;;;;6267361;28;20211;-77
2024/03/18 04:57:45;;;;;;;5.03;1.73;;;16.90;60.20;;;;;;6282698;28;20078;-77
2024/03/18 05:00:46;;;;;;;4.00;2.28;;;16.90;60.30;;;;;;6281806;28;20021;-78
2024/03/18 05:03:49;;;;;;;7.00;2.40;;;17.00;60.40;;;;;;6283531;28;20025;-77
2024/03/18 05:06:50;;;;;;;3.80;2.00;;;17.00;60.50;;;;;;6275494;28;20039;-76
2024/03/18 05:09:53;;;;;;;4.80;2.00;;;16.90;60.60;;;;;;6258832;28;20485;-77
2024/03/18 05:12:59;;;;;;;2.80;2.15;;;16.90;60.60;;;;;;6275991;28;20032;-77
2024/03/18 05:16:03;;;;;;;4.30;1.67;;;16.90;60.50;;;;;;6282947;28;20044;-77
2024/03/18 05:19:05;;;;;;;7.28;2.25;;;16.90;60.60;;;;;;6282631;28;20025;-76
2024/03/18 05:22:07;;;;;;;4.90;1.35;;;16.90;60.60;;;;;;6265939;28;20120;-76
2024/03/18 05:25:13;;;;;;;3.97;2.05;;;17.00;60.60;;;;;;6284344;28;20012;-78
2024/03/18 05:28:13;;;;;;;5.78;1.90;;;17.00;60.60;;;;;;6265429;28;20027;-77
2024/03/18 05:31:14;;;;;;;7.93;1.83;;;16.90;60.60;;;;;;6281701;28;20369;-75
2024/03/18 05:34:15;;;;;;;4.18;2.33;;;16.90;60.80;;;;;;6281270;28;20016;-76
2024/03/18 05:37:18;;;;;;;4.28;2.17;;;16.90;60.90;;;;;;6282537;28;20063;-77
2024/03/18 05:40:19;;;;;;;5.85;2.42;;;16.90;60.90;;;;;;6282143;28;20031;-75
2024/03/18 05:43:20;;;;;;;9.40;1.80;;;16.90;60.90;;;;;;6247884;28;20342;-77
2024/03/18 05:46:23;;;;;;;9.55;2.53;;;16.90;61.00;;;;;;6281621;28;20040;-76
2024/03/18 05:49:24;;;;;;;5.63;2.30;;;16.80;61.20;;;;;;6281289;28;20476;-77
2024/03/18 05:52:25;;;;;;;3.97;1.95;;;16.80;61.40;;;;;;6264282;28;20056;-76
2024/03/18 05:55:26;;;;;;;5.80;2.22;;;16.80;61.60;;;;;;6280039;28;20617;-76
2024/03/18 05:58:29;;;;;;;4.72;2.78;;;16.70;61.70;;;;;;6282111;28;20009;-76
2024/03/18 06:01:31;;;;;;;7.68;2.45;;;16.70;62.10;;;;;;6280292;28;20152;-76
2024/03/18 06:04:32;;;;;;;5.60;2.88;;;16.70;62.40;;;;;;6280973;28;20027;-77
2024/03/18 06:07:33;;;;;;;7.50;2.53;;;16.70;62.60;;;;;;6281648;28;20028;-77
2024/03/18 06:10:34;;;;;;;6.85;2.47;;;16.70;62.80;;;;;;6264131;28;20060;-77
2024/03/18 06:13:35;;;;;;;7.20;3.03;;;16.60;63.30;;;;;;6280111;28;20107;-77
2024/03/18 06:16:36;;;;;;;4.70;2.05;;;16.50;63.50;;;;;;6264139;28;20128;-77
2024/03/18 06:19:37;;;;;;;3.88;2.10;;;16.50;63.80;;;;;;6263880;28;20195;-78
2024/03/18 06:22:39;;;;;;;7.03;2.15;;;16.40;64.20;;;;;;6280849;28;20085;-75
2024/03/18 06:29:03;;;;;;;6.45;2.40;;;16.30;64.70;;;;;;6276298;28;20039;-75
2024/03/18 06:32:04;;;;;;;3.88;2.30;;;16.40;65.30;;;;;;6264264;28;20036;-77
2024/03/18 06:35:05;;;;;;;15.10;2.58;;;16.30;65.30;;;;;;6280631;28;20027;-77
2024/03/18 06:38:07;;;;;;;3.17;2.05;;;16.30;65.30;;;;;;6277814;28;20040;-78
2024/03/18 06:41:11;;;;;;;9.63;2.38;;;16.40;65.40;;;;;;6279279;28;20027;-76
2024/03/18 06:44:14;;;;;;;5.88;2.38;;;16.40;65.50;;;;;;6264709;28;20031;-76
2024/03/18 06:47:17;;;;;;;5.68;2.10;;;16.40;65.70;;;;;;6264501;28;20457;-76
2024/03/18 06:50:19;;;;;;;3.90;2.10;;;16.40;65.80;;;;;;6280069;28;20035;-77
2024/03/18 06:53:20;;;;;;;4.40;2.55;;;16.40;65.80;;;;;;6279417;28;20032;-77
2024/03/18 06:56:21;;;;;;;4.38;2.53;;;16.40;65.70;;;;;;6262216;28;20055;-76
2024/03/18 06:59:24;;;;;;;4.13;2.53;;;16.40;65.70;;;;;;6279690;28;20463;-76
2024/03/18 07:02:26;;;;;;;5.80;2.42;;;16.40;65.50;;;;;;6258642;28;20123;-76
2024/03/18 07:05:27;;;;;;;6.18;2.90;;;16.40;65.50;;;;;;6244248;28;20185;-73
2024/03/18 07:08:30;;;;;;;5.18;2.67;;;16.50;65.50;;;;;;6281116;28;20055;-76
2024/03/18 07:11:32;;;;;;;5.43;2.58;;;16.50;65.60;;;;;;6281953;28;20060;-76
2024/03/18 07:14:34;;;;;;;6.53;3.15;;;16.50;65.70;;;;;;6281977;28;20017;-77
2024/03/18 07:17:36;;;;;;;8.82;2.17;;;16.50;65.70;;;;;;6281652;28;20035;-76
2024/03/18 07:20:37;;;;;;;6.57;2.35;;;16.60;65.70;;;;;;6282134;28;20013;-76
2024/03/18 07:23:39;;;;;;;8.40;2.97;;;16.60;65.70;;;;;;6263737;28;20047;-75
2024/03/18 07:26:41;;;;;;;6.38;2.90;;;16.60;65.70;;;;;;6267580;28;20025;-76
2024/03/18 07:29:42;;;;;;;6.60;2.65;;;16.60;65.80;;;;;;6284030;28;20023;-77
2024/03/18 07:32:43;;;;;;;3.22;1.92;;;16.70;66.00;;;;;;6285683;28;20408;-77
2024/03/18 07:35:44;;;;;;;8.90;2.30;;;16.70;65.80;;;;;;6282575;28;20074;-77
2024/03/18 07:38:45;;;;;;;10.88;2.97;;;16.60;65.60;;;;;;6276690;28;20028;-76
2024/03/18 07:41:47;;;;;;;8.82;2.17;;;16.70;65.70;;;;;;6281997;28;20448;-77
2024/03/18 07:44:48;;;;;;;8.82;2.67;;;16.70;65.70;;;;;;6267988;28;20072;-77
2024/03/18 07:47:51;;;;;;;6.13;2.75;;;16.80;65.60;;;;;;6284414;28;20397;-77
2024/03/18 07:50:57;;;;;;;6.13;2.75;;;16.80;65.30;;;;;;6250622;28;20571;-77
2024/03/18 07:54:00;;;;;;;5.05;2.45;;;16.90;65.40;;;;;;6276362;28;20089;-77
2024/03/18 07:57:52;;;;;;;9.00;2.28;;;16.90;65.20;;;;;;6285948;28;20033;-76
2024/03/18 08:00:55;;;;;;;5.60;2.58;;;17.00;65.10;;;;;;6273675;28;20067;-77
2024/03/18 08:03:56;;;;;;;6.28;2.67;;;17.10;64.90;;;;;;6283818;28;20127;-76
2024/03/18 08:06:57;;;;;;;6.63;2.88;;;17.10;64.70;;;;;;6269431;28;20231;-77
2024/03/18 08:09:57;;;;;;;11.48;3.25;;;17.10;64.40;;;;;;6276089;28;20079;-78
2024/03/18 08:12:58;;;;;;;4.82;2.65;;;17.10;64.30;;;;;;6283171;28;20032;-77
2024/03/18 08:15:59;;;;;;;6.93;2.80;;;17.10;64.30;;;;;;6267270;28;20013;-77
2024/03/18 08:19:00;;;;;;;4.10;2.20;;;17.10;64.20;;;;;;6266681;28;20107;-77
2024/03/18 08:22:01;;;;;;;6.95;2.28;;;17.20;64.10;;;;;;6249880;28;20428;-77
2024/03/18 08:25:02;;;;;;;8.10;2.90;;;17.30;64.00;;;;;;6282948;28;20496;-76
2024/03/18 08:28:04;;;;;;;6.15;2.80;;;17.30;63.70;;;;;;6284033;28;20025;-77
2024/03/18 08:31:05;;;;;;;6.75;2.90;;;17.30;63.70;;;;;;6283759;28;20036;-77
2024/03/18 08:34:06;;;;;;;8.80;3.50;;;17.20;63.80;;;;;;6247215;28;20032;-76
2024/03/18 08:38:03;;;;;;;6.43;2.47;;;17.30;64.00;;;;;;6283091;28;20067;-77
2024/03/18 08:41:05;;;;;;;5.85;2.88;;;17.20;64.30;;;;;;6283545;28;20020;-76
2024/03/18 08:44:06;;;;;;;6.32;3.50;;;17.10;65.00;;;;;;6276155;28;20025;-77
2024/03/18 08:47:06;;;;;;;17.42;3.78;;;17.00;65.50;;;;;;6266645;28;20756;-77
2024/03/18 08:50:08;;;;;;;4.75;2.53;;;16.90;65.90;;;;;;6283208;28;20027;-77
2024/03/18 08:53:09;;;;;;;9.00;2.55;;;16.80;66.40;;;;;;6284440;28;20381;-77
2024/03/18 08:56:11;;;;;;;7.40;2.33;;;16.70;66.80;;;;;;6265928;28;20051;-76
2024/03/18 08:59:13;;;;;;;7.20;2.70;;;16.50;67.20;;;;;;6265159;28;20094;-77
2024/03/18 09:02:13;;;;;;;9.57;2.90;;;16.50;67.70;;;;;;6282107;28;20028;-77
2024/03/18 09:05:17;;;;;;;5.70;2.67;;;16.50;67.80;;;;;;6263501;28;20495;-75
2024/03/18 09:08:18;;;;;;;6.13;2.45;;;16.60;67.80;;;;;;6257365;28;20453;-77
2024/03/18 09:11:18;;;;;;;16.10;2.95;;;16.60;67.70;;;;;;6280794;28;20087;-78
2024/03/18 09:14:19;;;;;;;7.28;1.95;;;16.70;67.60;;;;;;6284545;28;20028;-77
2024/03/18 09:17:20;;;;;;;4.50;2.03;;;16.80;67.60;;;;;;6282499;28;20017;-77
2024/03/18 09:20:22;;;;;;;6.63;2.15;;;16.90;67.30;;;;;;6282340;28;20033;-77
2024/03/18 09:23:24;;;;;;;6.32;2.30;;;17.00;67.20;;;;;;6283683;28;20021;-77
2024/03/18 09:26:25;;;;;;;10.40;2.47;;;17.10;66.90;;;;;;6264284;28;20116;-77
2024/03/18 09:29:25;;;;;;;3.70;1.55;;;17.30;66.70;;;;;;6282860;28;20024;-77
2024/03/18 09:32:26;;;;;;;7.38;2.35;;;17.40;66.30;;;;;;6264634;28;20506;-76
2024/03/18 09:35:27;;;;;;;7.45;2.53;;;17.60;65.90;;;;;;6281503;28;20092;-76
2024/03/18 09:38:29;;;;;;;7.53;2.25;;;17.80;65.40;;;;;;6281901;28;20569;-76
2024/03/18 09:41:32;;;;;;;5.40;1.75;;;18.00;64.90;;;;;;6282220;28;20425;-76
2024/03/18 09:44:35;;;;;;;13.05;2.30;;;18.20;64.50;;;;;;6282343;28;20032;-77
2024/03/18 09:47:37;;;;;;;8.48;2.10;;;18.30;63.90;;;;;;6264564;28;20096;-75
2024/03/18 09:50:39;;;;;;;5.10;2.55;;;18.40;63.50;;;;;;6281734;28;20024;-77
2024/03/18 09:53:40;;;;;;;6.88;2.55;;;18.50;63.30;;;;;;6281329;28;20041;-76
2024/03/18 09:57:10;;;;;;;14.13;2.90;;;18.50;62.90;;;;;;6264401;28;20150;-75
2024/03/18 10:00:11;;;;;;;6.50;3.03;;;18.70;62.60;;;;;;6255589;28;20008;-77
2024/03/18 10:03:17;;;;;;;9.05;3.05;;;18.80;62.10;;;;;;6283282;28;20383;-77
2024/03/18 10:06:18;;;;;;;5.18;2.45;;;18.90;62.00;;;;;;6280933;28;20043;-78
2024/03/18 10:09:26;;;;;;;7.25;2.65;;;19.00;61.60;;;;;;6281975;28;20036;-77
2024/03/18 10:12:27;;;;;;;7.27;2.67;;;19.20;61.40;;;;;;6281471;28;20552;-77
2024/03/18 10:15:27;;;;;;;6.70;3.00;;;19.30;61.10;;;;;;6264810;28;20367;-77
2024/03/18 10:18:28;;;;;;;5.47;2.65;;;19.40;60.90;;;;;;6265294;28;20437;-77
2024/03/18 10:21:29;;;;;;;6.30;3.08;;;19.60;60.70;;;;;;6281821;28;20031;-78
2024/03/18 10:24:31;;;;;;;4.07;2.60;;;19.70;60.50;;;;;;6281839;28;20027;-77
2024/03/18 10:27:35;;;;;;;7.10;2.83;;;19.90;60.20;;;;;;6273670;28;20446;-78
2024/03/18 10:30:37;;;;;;;5.07;2.50;;;20.00;59.60;;;;;;6249707;28;20048;-77
2024/03/18 10:33:45;;;;;;;15.63;4.93;;;19.90;59.70;;;;;;6281087;28;20058;-76
2024/03/18 10:36:51;;;;;;;6.28;3.42;;;19.70;59.90;;;;;;6278742;28;20019;-77
2024/03/18 10:40:10;;;;;;;4.65;2.65;;;19.70;60.10;;;;;;6264711;28;20069;-77
2024/03/18 10:43:13;;;;;;;3.47;2.58;;;19.90;60.20;;;;;;6264730;28;20338;-77
2024/03/18 10:46:15;;;;;;;3.90;2.88;;;20.10;59.70;;;;;;6280893;28;20050;-76
2024/03/18 10:49:17;;;;;;;5.72;3.00;;;20.20;59.30;;;;;;6282001;28;20068;-76
2024/03/18 10:52:19;;;;;;;8.50;3.58;;;20.30;59.10;;;;;;6281509;28;20494;-76
2024/03/18 10:55:22;;;;;;;7.43;4.35;;;20.30;59.10;;;;;;6280201;28;20090;-76
2024/03/18 10:58:26;;;;;;;4.47;2.75;;;20.50;59.30;;;;;;6281052;28;20035;-77
2024/03/18 11:01:28;;;;;;;6.43;2.40;;;21.00;58.60;;;;;;6286760;28;20024;-75
2024/03/18 11:04:30;;;;;;;12.73;3.80;;;21.10;57.60;;;;;;6270765;28;20045;-77
2024/03/18 11:07:32;;;;;;;5.80;2.03;;;21.00;57.90;;;;;;6259509;28;20025;-77
2024/03/18 11:10:38;;;;;;;5.55;1.90;;;20.70;58.40;;;;;;6274234;28;20111;-80
2024/03/18 11:13:42;;;;;;;2.60;1.67;;;20.50;59.00;;;;;;6286759;28;20465;-77
2024/03/18 11:21:05;;;;;;;2.50;1.40;;;20.40;59.70;;;;;;6287691;28;20040;-77
2024/03/18 11:24:08;;;;;;;7.47;1.85;;;20.40;59.40;;;;;;6268821;28;20544;-78
2024/03/18 11:27:10;;;;;;;2.47;1.63;;;20.40;59.30;;;;;;6286622;28;20031;-77
2024/03/18 11:30:30;;;;;;;2.63;1.23;;;20.50;58.90;;;;;;6287665;28;20396;-77
2024/03/18 11:33:36;;;;;;;7.78;2.95;;;20.80;58.70;;;;;;6266613;28;20358;-77
2024/03/18 11:36:39;;;;;;;7.25;3.92;;;21.00;58.20;;;;;;6260728;28;20186;-76
2024/03/18 11:39:42;;;;;;;10.60;4.38;;;21.20;58.00;;;;;;6262462;28;20481;-76
2024/03/18 11:42:46;;;;;;;7.50;3.75;;;21.30;57.50;;;;;;6285464;28;20101;-78
2024/03/18 11:45:49;;;;;;;11.15;4.10;;;21.40;57.30;;;;;;6268851;28;20687;-76
2024/03/18 11:49:04;;;;;;;9.88;4.03;;;21.50;57.20;;;;;;6268947;28;20410;-78
2024/03/18 11:52:12;;;;;;;10.10;4.40;;;21.70;57.20;;;;;;6268441;28;20170;-76
2024/03/18 11:55:15;;;;;;;11.90;4.80;;;21.90;56.80;;;;;;6286929;28;20016;-78
2024/03/18 11:58:16;;;;;;;9.68;4.97;;;22.00;56.50;;;;;;6286021;28;20020;-76
2024/03/18 12:01:18;;;;;;;8.52;4.63;;;22.10;56.40;;;;;;6286040;28;20048;-76
2024/03/18 12:04:20;;;;;;;8.07;4.47;;;22.20;56.20;;;;;;6284820;28;20029;-77
2024/03/18 12:07:22;;;;;;;6.43;3.97;;;22.30;56.10;;;;;;6267724;28;20532;-77
2024/03/18 12:10:24;;;;;;;9.93;4.50;;;22.40;55.60;;;;;;6266996;28;20409;-76
2024/03/18 12:13:26;;;;;;;7.28;4.80;;;22.60;55.50;;;;;;6286202;28;20083;-77
2024/03/18 12:16:31;;;;;;;10.85;4.93;;;22.70;55.20;;;;;;6283953;28;20025;-77
2024/03/18 12:19:32;;;;;;;8.23;4.93;;;23.00;54.80;;;;;;6283906;28;20016;-77
2024/03/18 12:22:34;;;;;;;6.68;4.50;;;23.40;54.10;;;;;;6283535;28;20052;-76
2024/03/18 12:28:56;;;;;;;6.45;3.75;;;24.20;52.30;;;;;;6260324;28;20036;-76
2024/03/18 12:31:59;;;;;;;6.68;3.67;;;24.80;51.40;;;;;;6279347;28;20041;-76
2024/03/18 12:35:00;;;;;;;6.63;3.90;;;25.60;49.30;;;;;;6283524;28;20021;-77
2024/03/18 12:38:02;;;;;;;6.00;4.00;;;25.70;48.10;;;;;;6283846;28;20140;-78
2024/03/18 12:41:13;;;;;;;10.18;4.35;;;25.30;48.30;;;;;;6266426;28;20033;-76
2024/03/18 12:44:14;;;;;;;9.75;3.75;;;25.00;49.00;;;;;;6251029;28;20031;-77
2024/03/18 12:47:16;;;;;;;5.10;3.25;;;24.90;49.00;;;;;;6284994;28;20088;-75
2024/03/18 12:50:52;;;;;;;6.75;3.70;;;24.60;49.00;;;;;;6282647;28;20055;-77
2024/03/18 12:53:53;;;;;;;7.20;3.20;;;24.00;49.70;;;;;;6283130;28;20392;-76
2024/03/18 12:56:55;;;;;;;5.28;3.10;;;23.50;50.80;;;;;;6258967;28;20056;-77
2024/03/18 12:59:58;;;;;;;6.18;3.17;;;23.10;51.60;;;;;;6278735;28;20157;-77
2024/03/18 13:02:59;;;;;;;7.50;3.33;;;22.70;52.30;;;;;;6278135;28;20029;-77
2024/03/18 13:06:03;;;;;;;8.02;3.47;;;22.30;52.90;;;;;;6265891;28;20123;-76
2024/03/18 13:09:04;;;;;;;5.20;2.42;;;22.10;53.40;;;;;;6255958;28;20051;-76
2024/03/18 13:12:05;;;;;;;3.15;1.40;;;22.00;53.80;;;;;;6282841;28;20029;-76
2024/03/18 13:15:09;;;;;;;1.33;0.90;;;21.90;53.70;;;;;;6283509;28;20023;-76
2024/03/18 13:18:12;;;;;;;1.33;0.77;;;21.80;53.40;;;;;;6264640;28;20531;-77
2024/03/18 13:21:13;;;;;;;1.75;0.80;;;21.60;53.20;;;;;;6281163;28;20069;-78
2024/03/18 13:24:14;;;;;;;1.92;0.90;;;21.40;53.50;;;;;;6248456;28;20368;-76
2024/03/18 13:27:15;;;;;;;5.05;0.93;;;21.40;53.90;;;;;;6281274;28;20016;-75
2024/03/18 13:30:16;;;;;;;0.77;0.68;;;21.30;53.60;;;;;;6281225;28;20064;-77
2024/03/18 13:33:19;;;;;;;0.98;0.88;;;21.40;53.50;;;;;;6281475;28;20041;-77
2024/03/18 13:36:35;;;;;;;0.90;0.80;;;21.60;53.20;;;;;;6282179;28;20025;-77
2024/03/18 13:39:38;;;;;;;4.72;0.82;;;21.50;52.80;;;;;;6264863;28;20113;-77
2024/03/18 13:42:38;;;;;;;3.50;1.58;;;21.50;52.70;;;;;;6282555;28;20500;-76
2024/03/18 13:45:42;;;;;;;3.35;2.10;;;21.50;52.70;;;;;;6264951;28;20028;-76
2024/03/18 13:48:43;;;;;;;4.05;1.77;;;21.40;53.40;;;;;;6264378;28;20036;-77
2024/03/18 13:51:44;;;;;;;8.80;1.88;;;21.40;54.00;;;;;;6281797;28;20186;-78
2024/03/18 13:54:45;;;;;;;5.55;2.00;;;21.40;54.40;;;;;;6246486;28;20721;-76
2024/03/18 13:57:49;;;;;;;5.35;2.47;;;21.40;54.60;;;;;;6282822;28;20067;-76
2024/03/18 14:00:50;;;;;;;2.90;1.83;;;21.60;54.80;;;;;;6283630;28;20048;-76
2024/03/18 14:03:51;;;;;;;2.90;1.67;;;21.60;54.80;;;;;;6281556;28;20168;-76
2024/03/18 14:06:52;;;;;;;1.88;1.42;;;21.70;54.60;;;;;;6280871;28;20020;-76
2024/03/18 14:09:55;;;;;;;2.72;1.35;;;21.70;54.40;;;;;;6281325;28;20077;-76
2024/03/18 14:12:57;;;;;;;2.28;1.45;;;21.90;54.20;;;;;;6281261;28;20051;-76
2024/03/18 14:15:57;;;;;;;1.65;1.55;;;22.00;53.90;;;;;;6264136;28;20020;-76
2024/03/18 14:19:00;;;;;;;9.48;1.95;;;22.00;53.60;;;;;;6264141;28;20365;-77
2024/03/18 14:22:01;;;;;;;2.80;1.30;;;22.10;53.50;;;;;;6282707;28;21414;-77
2024/03/18 14:25:09;;;;;;;2.03;1.35;;;22.10;53.40;;;;;;6255866;28;20496;-77
2024/03/18 14:28:09;;;;;;;1.30;1.20;;;22.10;53.40;;;;;;6280552;28;20086;-77
2024/03/18 14:31:11;;;;;;;1.45;1.30;;;22.10;53.20;;;;;;6264054;28;20521;-77
2024/03/18 14:34:13;;;;;;;2.92;1.25;;;22.10;53.20;;;;;;6263206;28;20040;-75
2024/03/18 14:37:14;;;;;;;4.38;1.60;;;22.10;53.00;;;;;;6280652;28;20044;-76
2024/03/18 14:40:17;;;;;;;1.92;1.08;;;22.10;53.00;;;;;;6283113;28;20027;-77
2024/03/18 14:43:19;;;;;;;3.05;1.38;;;22.20;52.80;;;;;;6281426;28;20345;-77
2024/03/18 14:46:21;;;;;;;4.38;1.25;;;22.30;52.60;;;;;;6281018;28;20028;-77
2024/03/18 14:49:23;;;;;;;2.92;1.10;;;22.50;52.10;;;;;;6279527;28;20017;-76
2024/03/18 14:52:24;;;;;;;1.38;0.90;;;22.70;51.90;;;;;;6280899;28;20239;-75
2024/03/18 14:55:28;;;;;;;2.05;0.70;;;22.80;51.50;;;;;;6280649;28;20098;-77
2024/03/18 14:58:29;;;;;;;0.80;0.60;;;22.90;50.70;;;;;;6279914;28;20161;-76
2024/03/18 15:01:31;;;;;;;0.95;0.50;;;23.00;50.10;;;;;;6249811;28;20029;-75
2024/03/18 15:04:34;;;;;;;0.47;0.45;;;23.10;49.90;;;;;;6269626;28;20028;-74
2024/03/18 15:07:35;;;;;;;0.45;0.43;;;23.10;49.10;;;;;;6242868;28;20449;-77
2024/03/18 15:10:36;;;;;;;1.55;0.98;;;23.10;48.70;;;;;;6263819;28;20415;-77
2024/03/18 15:13:44;;;;;;;0.50;0.50;;;23.30;48.40;;;;;;6279195;28;20058;-77
2024/03/18 15:16:45;;;;;;;;;;;23.30;47.50;;;;;;6279909;28;20119;-77
2024/03/18 15:19:46;;;;;;;0.60;0.57;;;23.30;46.50;;;;;;6280115;28;21315;-77
2024/03/18 15:22:47;;;;;;;0.73;0.60;;;23.20;46.30;;;;;;6279995;28;20133;-75
2024/03/18 15:29:09;;;;;;;2.60;0.75;;;23.10;46.80;;;;;;6265612;28;20111;-77
2024/03/18 15:32:15;;;;;;;0.85;0.40;;;23.00;46.50;;;;;;6263067;28;20053;-77
2024/03/18 15:35:16;;;;;;;0.40;0.40;;;23.00;46.50;;;;;;6264080;28;20048;-77
2024/03/18 15:38:17;;;;;;;3.17;0.80;;;23.00;46.50;;;;;;6263702;28;20017;-77
2024/03/18 15:41:18;;;;;;;0.50;0.40;;;23.00;46.30;;;;;;6263702;28;20044;-77
2024/03/18 15:44:20;;;;;;;3.05;0.80;;;23.00;45.80;;;;;;6264680;28;20099;-77
2024/03/18 15:47:21;;;;;;;0.57;0.55;;;23.00;45.90;;;;;;6286264;28;20086;-75
2024/03/18 15:50:22;;;;;;;1.05;0.30;;;22.90;45.70;;;;;;6283944;28;20058;-76
2024/03/18 15:53:22;;;;;;;2.63;0.57;;;22.90;45.90;;;;;;6285669;28;20871;-78
2024/03/18 15:56:25;;;;;;;0.70;0.50;;;22.80;45.90;;;;;;6284204;28;20086;-76
2024/03/18 15:59:26;;;;;;;0.43;0.43;;;22.80;46.00;;;;;;6285261;28;20029;-76
2024/03/18 16:02:27;;;;;;;0.82;0.55;;;22.80;46.70;;;;;;6285288;28;20020;-76
2024/03/18 16:05:30;;;;;;;0.30;0.30;;;22.70;46.10;;;;;;6284880;28;20101;-77
2024/03/18 16:08:36;;;;;;;0.68;0.50;;;22.60;46.10;;;;;;6283659;28;20033;-77
2024/03/18 16:11:37;;;;;;;0.70;0.30;;;22.50;46.30;;;;;;6266645;28;20123;-77